sensor_id;sensor_type;location;lat;lon;timestamp;pressure;altitude;pressure_sealevel;temperature;humidity
28606;BME280;46498;49.968;7.754;2023-02-18T00:03:30;97843.00;;;9.16;100.00
28606;BME280;46498;49.968;7.754;2023-02-18T00:08:34;97840.00;;;9.12;100.00
28606;BME280;46498;49.968;7.754;2023-02-18T00:13:35;97835.00;;;9.05;100.00
28606;BME280;46498;49.968;7.754;2023-02-18T00:18:37;97842.00;;;8.99;100.00
28606;BME280;46498;49.968;7.754;2023-02-18T00:23:38;97842.00;;;8.99;100.00
28606;BME280;46498;49.968;7.754;2023-02-18T00:28:40;97845.00;;;8.95;100.00
28606;BME280;46498;49.968;7.754;2023-02-18T00:33:41;97839.00;;;8.89;100.00
28606;BME280;46498;49.968;7.754;2023-02-18T00:38:46;97838.00;;;8.85;100.00
28606;BME280;46498;49.968;7.754;2023-02-18T00:43:47;97840.00;;;8.82;100.00
28606;BME280;46498;49.968;7.754;2023-02-18T00:48:48;97846.00;;;8.85;100.00
28606;BME280;46498;49.968;7.754;2023-02-18T00:53:49;97852.00;;;8.78;100.00
28606;BME280;46498;49.968;7.754;2023-02-18T00:58:50;97856.00;;;8.81;100.00
28606;BME280;46498;49.968;7.754;2023-02-18T01:03:55;97837.00;;;8.79;100.00
28606;BME280;46498;49.968;7.754;2023-02-18T01:08:55;97831.00;;;8.68;100.00
28606;BME280;46498;49.968;7.754;2023-02-18T01:13:57;97836.00;;;8.65;100.00
28606;BME280;46498;49.968;7.754;2023-02-18T01:18:58;97836.00;;;8.66;100.00
28606;BME280;46498;49.968;7.754;2023-02-18T01:23:59;97842.00;;;8.63;100.00
28606;BME280;46498;49.968;7.754;2023-02-18T01:29:00;97832.00;;;8.64;100.00
28606;BME280;46498;49.968;7.754;2023-02-18T01:34:01;97824.00;;;8.64;100.00
28606;BME280;46498;49.968;7.754;2023-02-18T01:39:04;97820.00;;;8.66;100.00
28606;BME280;46498;49.968;7.754;2023-02-18T01:44:24;97817.00;;;8.66;100.00
28606;BME280;46498;49.968;7.754;2023-02-18T01:49:30;97810.00;;;8.62;100.00
28606;BME280;46498;49.968;7.754;2023-02-18T01:54:37;97810.00;;;8.65;100.00
28606;BME280;46498;49.968;7.754;2023-02-18T01:59:45;97799.00;;;8.60;100.00
28606;BME280;46498;49.968;7.754;2023-02-18T02:04:48;97793.00;;;8.53;100.00
28606;BME280;46498;49.968;7.754;2023-02-18T02:09:51;97777.00;;;8.51;100.00
28606;BME280;46498;49.968;7.754;2023-02-18T02:15:23;97763.00;;;8.53;100.00
28606;BME280;46498;49.968;7.754;2023-02-18T02:27:28;97750.00;;;8.53;100.00
28606;BME280;46498;49.968;7.754;2023-02-18T02:32:54;97748.00;;;8.58;100.00
28606;BME280;46498;49.968;7.754;2023-02-18T02:38:07;97756.00;;;8.62;100.00
28606;BME280;46498;49.968;7.754;2023-02-18T02:51:08;97734.00;;;8.55;100.00
28606;BME280;46498;49.968;7.754;2023-02-18T02:56:18;97737.00;;;8.60;100.00
28606;BME280;46498;49.968;7.754;2023-02-18T03:08:11;97738.00;;;8.54;100.00
28606;BME280;46498;49.968;7.754;2023-02-18T03:22:16;97741.00;;;8.46;100.00
28606;BME280;46498;49.968;7.754;2023-02-18T03:27:26;97740.00;;;8.45;100.00
28606;BME280;46498;49.968;7.754;2023-02-18T03:32:29;97728.00;;;8.47;100.00
28606;BME280;46498;49.968;7.754;2023-02-18T03:37:34;97721.00;;;8.47;100.00
28606;BME280;46498;49.968;7.754;2023-02-18T03:42:37;97732.00;;;8.50;100.00
28606;BME280;46498;49.968;7.754;2023-02-18T03:47:40;97733.00;;;8.47;100.00
28606;BME280;46498;49.968;7.754;2023-02-18T03:52:40;97728.00;;;8.48;100.00
28606;BME280;46498;49.968;7.754;2023-02-18T03:57:41;97718.00;;;8.41;100.00
28606;BME280;46498;49.968;7.754;2023-02-18T04:02:42;97700.00;;;8.40;100.00
28606;BME280;46498;49.968;7.754;2023-02-18T04:07:43;97708.00;;;8.42;100.00
28606;BME280;46498;49.968;7.754;2023-02-18T04:12:44;97702.00;;;8.41;100.00
28606;BME280;46498;49.968;7.754;2023-02-18T04:17:45;97704.00;;;8.33;100.00
28606;BME280;46498;49.968;7.754;2023-02-18T04:22:46;97698.00;;;8.39;100.00
28606;BME280;46498;49.968;7.754;2023-02-18T04:27:46;97700.00;;;8.30;100.00
28606;BME280;46498;49.968;7.754;2023-02-18T04:32:47;97694.00;;;8.27;100.00
28606;BME280;46498;49.968;7.754;2023-02-18T04:37:48;97693.00;;;8.28;100.00
28606;BME280;46498;49.968;7.754;2023-02-18T04:42:49;97698.00;;;8.27;100.00
28606;BME280;46498;49.968;7.754;2023-02-18T04:47:51;97702.00;;;8.27;100.00
28606;BME280;46498;49.968;7.754;2023-02-18T04:52:52;97701.00;;;8.16;100.00
28606;BME280;46498;49.968;7.754;2023-02-18T04:57:52;97697.00;;;8.17;100.00
28606;BME280;46498;49.968;7.754;2023-02-18T05:02:54;97678.00;;;8.19;100.00
28606;BME280;46498;49.968;7.754;2023-02-18T05:07:54;97683.00;;;8.12;100.00
28606;BME280;46498;49.968;7.754;2023-02-18T05:12:55;97684.00;;;8.11;100.00
28606;BME280;46498;49.968;7.754;2023-02-18T05:17:56;97684.00;;;8.09;100.00
28606;BME280;46498;49.968;7.754;2023-02-18T05:22:57;97675.00;;;8.07;100.00
28606;BME280;46498;49.968;7.754;2023-02-18T05:27:57;97669.00;;;8.07;100.00
28606;BME280;46498;49.968;7.754;2023-02-18T05:32:58;97670.00;;;8.09;100.00
28606;BME280;46498;49.968;7.754;2023-02-18T05:37:59;97667.00;;;8.12;100.00
28606;BME280;46498;49.968;7.754;2023-02-18T05:43:00;97675.00;;;8.07;100.00
28606;BME280;46498;49.968;7.754;2023-02-18T05:48:01;97662.00;;;8.02;100.00
28606;BME280;46498;49.968;7.754;2023-02-18T05:53:02;97669.00;;;8.03;100.00
28606;BME280;46498;49.968;7.754;2023-02-18T05:58:04;97657.00;;;7.87;100.00
28606;BME280;46498;49.968;7.754;2023-02-18T06:03:05;97648.00;;;7.90;100.00
28606;BME280;46498;49.968;7.754;2023-02-18T06:08:06;97647.00;;;7.86;100.00
28606;BME280;46498;49.968;7.754;2023-02-18T06:13:07;97640.00;;;7.79;100.00
28606;BME280;46498;49.968;7.754;2023-02-18T06:18:08;97642.00;;;7.79;100.00
28606;BME280;46498;49.968;7.754;2023-02-18T06:23:09;97640.00;;;7.74;100.00
28606;BME280;46498;49.968;7.754;2023-02-18T06:28:12;97642.00;;;7.72;100.00
28606;BME280;46498;49.968;7.754;2023-02-18T06:33:12;97640.00;;;7.71;100.00
28606;BME280;46498;49.968;7.754;2023-02-18T06:38:13;97651.00;;;7.62;100.00
28606;BME280;46498;49.968;7.754;2023-02-18T06:43:14;97645.00;;;7.55;100.00
28606;BME280;46498;49.968;7.754;2023-02-18T06:48:15;97646.00;;;7.52;100.00
28606;BME280;46498;49.968;7.754;2023-02-18T06:53:16;97654.00;;;7.42;100.00
28606;BME280;46498;49.968;7.754;2023-02-18T06:58:17;97641.00;;;7.35;100.00
28606;BME280;46498;49.968;7.754;2023-02-18T07:03:18;97634.00;;;7.34;100.00
28606;BME280;46498;49.968;7.754;2023-02-18T07:08:19;97611.00;;;7.30;100.00
28606;BME280;46498;49.968;7.754;2023-02-18T07:13:20;97618.00;;;7.34;100.00
28606;BME280;46498;49.968;7.754;2023-02-18T07:18:20;97619.00;;;7.40;100.00
28606;BME280;46498;49.968;7.754;2023-02-18T07:23:21;97623.00;;;7.43;100.00
28606;BME280;46498;49.968;7.754;2023-02-18T07:28:22;97619.00;;;7.44;100.00
28606;BME280;46498;49.968;7.754;2023-02-18T07:33:23;97611.00;;;7.47;100.00
28606;BME280;46498;49.968;7.754;2023-02-18T07:38:25;97614.00;;;7.42;100.00
28606;BME280;46498;49.968;7.754;2023-02-18T07:43:26;97601.00;;;7.49;100.00
28606;BME280;46498;49.968;7.754;2023-02-18T07:48:28;97612.00;;;7.58;100.00
28606;BME280;46498;49.968;7.754;2023-02-18T07:53:28;97608.00;;;7.57;100.00
28606;BME280;46498;49.968;7.754;2023-02-18T07:58:32;97610.00;;;7.64;100.00
28606;BME280;46498;49.968;7.754;2023-02-18T08:03:33;97607.00;;;7.77;100.00
28606;BME280;46498;49.968;7.754;2023-02-18T08:08:34;97599.00;;;7.76;100.00
28606;BME280;46498;49.968;7.754;2023-02-18T08:13:37;97611.00;;;7.78;100.00
28606;BME280;46498;49.968;7.754;2023-02-18T08:18:38;97597.00;;;7.75;100.00
28606;BME280;46498;49.968;7.754;2023-02-18T08:23:39;97601.00;;;7.77;100.00
28606;BME280;46498;49.968;7.754;2023-02-18T08:28:40;97599.00;;;7.83;100.00
28606;BME280;46498;49.968;7.754;2023-02-18T08:33:41;97585.00;;;7.91;100.00
28606;BME280;46498;49.968;7.754;2023-02-18T08:38:42;97618.00;;;7.95;100.00
28606;BME280;46498;49.968;7.754;2023-02-18T08:43:43;97625.00;;;7.97;100.00
28606;BME280;46498;49.968;7.754;2023-02-18T08:48:44;97615.00;;;8.03;100.00
28606;BME280;46498;49.968;7.754;2023-02-18T08:53:45;97628.00;;;8.08;100.00
28606;BME280;46498;49.968;7.754;2023-02-18T08:58:46;97629.00;;;8.02;100.00
28606;BME280;46498;49.968;7.754;2023-02-18T09:03:47;97615.00;;;8.02;100.00
28606;BME280;46498;49.968;7.754;2023-02-18T09:08:49;97615.00;;;8.03;100.00
28606;BME280;46498;49.968;7.754;2023-02-18T09:13:50;97605.00;;;8.02;100.00
28606;BME280;46498;49.968;7.754;2023-02-18T09:18:51;97616.00;;;8.04;100.00
28606;BME280;46498;49.968;7.754;2023-02-18T09:23:52;97632.00;;;8.07;100.00
28606;BME280;46498;49.968;7.754;2023-02-18T09:28:54;97613.00;;;8.17;100.00
28606;BME280;46498;49.968;7.754;2023-02-18T09:33:57;97621.00;;;8.18;100.00
28606;BME280;46498;49.968;7.754;2023-02-18T09:38:58;97612.00;;;8.12;100.00
28606;BME280;46498;49.968;7.754;2023-02-18T09:45:34;97601.00;;;8.10;100.00
28606;BME280;46498;49.968;7.754;2023-02-18T09:50:35;97615.00;;;8.10;100.00
28606;BME280;46498;49.968;7.754;2023-02-18T09:55:38;97630.00;;;8.16;100.00
28606;BME280;46498;49.968;7.754;2023-02-18T10:00:43;97627.00;;;8.11;100.00
28606;BME280;46498;49.968;7.754;2023-02-18T10:06:29;97625.00;;;7.99;100.00
28606;BME280;46498;49.968;7.754;2023-02-18T10:11:35;97634.00;;;7.86;100.00
28606;BME280;46498;49.968;7.754;2023-02-18T10:16:37;97619.00;;;8.06;100.00
28606;BME280;46498;49.968;7.754;2023-02-18T10:21:39;97605.00;;;8.14;100.00
28606;BME280;46498;49.968;7.754;2023-02-18T10:26:40;97615.00;;;8.19;100.00
28606;BME280;46498;49.968;7.754;2023-02-18T10:33:32;97609.00;;;8.17;100.00
28606;BME280;46498;49.968;7.754;2023-02-18T10:39:04;97608.00;;;8.32;100.00
28606;BME280;46498;49.968;7.754;2023-02-18T10:44:23;97624.00;;;8.30;100.00
28606;BME280;46498;49.968;7.754;2023-02-18T10:52:08;97615.00;;;8.38;100.00
28606;BME280;46498;49.968;7.754;2023-02-18T10:57:19;97597.00;;;8.61;100.00
28606;BME280;46498;49.968;7.754;2023-02-18T11:02:25;97596.00;;;8.76;99.16
28606;BME280;46498;49.968;7.754;2023-02-18T11:07:32;97603.00;;;9.07;100.00
28606;BME280;46498;49.968;7.754;2023-02-18T11:17:57;97584.00;;;9.08;97.98
28606;BME280;46498;49.968;7.754;2023-02-18T11:23:35;97582.00;;;9.19;97.15
28606;BME280;46498;49.968;7.754;2023-02-18T11:28:49;97576.00;;;9.17;97.69
28606;BME280;46498;49.968;7.754;2023-02-18T11:33:54;97582.00;;;9.23;97.10
28606;BME280;46498;49.968;7.754;2023-02-18T11:39:16;97592.00;;;9.13;97.34
28606;BME280;46498;49.968;7.754;2023-02-18T11:44:40;97592.00;;;9.28;97.57
28606;BME280;46498;49.968;7.754;2023-02-18T11:49:44;97579.00;;;9.12;98.61
28606;BME280;46498;49.968;7.754;2023-02-18T11:55:18;97570.00;;;9.29;98.16
28606;BME280;46498;49.968;7.754;2023-02-18T12:00:43;97558.00;;;9.23;98.42
28606;BME280;46498;49.968;7.754;2023-02-18T12:05:45;97555.00;;;9.16;98.53
28606;BME280;46498;49.968;7.754;2023-02-18T12:10:49;97531.00;;;9.16;98.88
28606;BME280;46498;49.968;7.754;2023-02-18T12:16:02;97529.00;;;9.15;98.76
28606;BME280;46498;49.968;7.754;2023-02-18T12:21:48;97517.00;;;9.28;99.09
28606;BME280;46498;49.968;7.754;2023-02-18T12:27:09;97524.00;;;9.46;98.42
28606;BME280;46498;49.968;7.754;2023-02-18T12:32:38;97515.00;;;9.67;97.43
28606;BME280;46498;49.968;7.754;2023-02-18T12:38:20;97516.00;;;10.30;93.31
28606;BME280;46498;49.968;7.754;2023-02-18T12:43:56;97518.00;;;10.44;92.56
28606;BME280;46498;49.968;7.754;2023-02-18T12:54:57;97501.00;;;10.12;93.61
28606;BME280;46498;49.968;7.754;2023-02-18T13:13:12;97502.00;;;10.39;91.93
28606;BME280;46498;49.968;7.754;2023-02-18T13:18:22;97502.00;;;10.95;90.66
28606;BME280;46498;49.968;7.754;2023-02-18T13:23:27;97507.00;;;10.61;90.67
28606;BME280;46498;49.968;7.754;2023-02-18T13:28:39;97518.00;;;10.61;91.24
28606;BME280;46498;49.968;7.754;2023-02-18T13:33:51;97511.00;;;10.60;90.73
28606;BME280;46498;49.968;7.754;2023-02-18T13:39:27;97515.00;;;10.10;94.40
28606;BME280;46498;49.968;7.754;2023-02-18T13:45:27;97517.00;;;10.39;94.06
28606;BME280;46498;49.968;7.754;2023-02-18T13:50:31;97512.00;;;10.16;93.98
28606;BME280;46498;49.968;7.754;2023-02-18T13:55:41;97517.00;;;10.12;96.10
28606;BME280;46498;49.968;7.754;2023-02-18T14:01:01;97513.00;;;10.04;96.67
28606;BME280;46498;49.968;7.754;2023-02-18T14:06:29;97531.00;;;10.56;93.37
28606;BME280;46498;49.968;7.754;2023-02-18T14:11:33;97516.00;;;10.81;92.20
28606;BME280;46498;49.968;7.754;2023-02-18T14:17:12;97535.00;;;10.37;94.97
28606;BME280;46498;49.968;7.754;2023-02-18T14:22:36;97525.00;;;10.10;99.46
28606;BME280;46498;49.968;7.754;2023-02-18T14:27:43;97519.00;;;9.87;100.00
28606;BME280;46498;49.968;7.754;2023-02-18T14:32:44;97523.00;;;9.79;100.00
28606;BME280;46498;49.968;7.754;2023-02-18T14:46:12;97518.00;;;9.55;100.00
28606;BME280;46498;49.968;7.754;2023-02-18T14:51:21;97537.00;;;9.42;100.00
28606;BME280;46498;49.968;7.754;2023-02-18T14:56:23;97535.00;;;9.15;100.00
28606;BME280;46498;49.968;7.754;2023-02-18T15:01:29;97536.00;;;9.02;100.00
28606;BME280;46498;49.968;7.754;2023-02-18T15:06:34;97528.00;;;9.07;100.00
28606;BME280;46498;49.968;7.754;2023-02-18T15:11:39;97537.00;;;9.13;100.00
28606;BME280;46498;49.968;7.754;2023-02-18T15:16:41;97537.00;;;8.87;100.00
28606;BME280;46498;49.968;7.754;2023-02-18T15:21:46;97542.00;;;9.13;100.00
28606;BME280;46498;49.968;7.754;2023-02-18T15:26:48;97552.00;;;9.04;100.00
28606;BME280;46498;49.968;7.754;2023-02-18T15:31:54;97552.00;;;8.84;100.00
28606;BME280;46498;49.968;7.754;2023-02-18T15:37:01;97545.00;;;8.78;100.00
28606;BME280;46498;49.968;7.754;2023-02-18T15:42:13;97540.00;;;8.72;100.00
28606;BME280;46498;49.968;7.754;2023-02-18T15:47:17;97536.00;;;8.66;100.00
28606;BME280;46498;49.968;7.754;2023-02-18T15:52:30;97536.00;;;8.58;100.00
28606;BME280;46498;49.968;7.754;2023-02-18T15:57:32;97533.00;;;8.45;100.00
28606;BME280;46498;49.968;7.754;2023-02-18T16:02:35;97539.00;;;8.41;100.00
28606;BME280;46498;49.968;7.754;2023-02-18T16:07:49;97551.00;;;8.49;100.00
28606;BME280;46498;49.968;7.754;2023-02-18T16:12:53;97560.00;;;8.43;100.00
28606;BME280;46498;49.968;7.754;2023-02-18T16:17:55;97545.00;;;8.42;100.00
28606;BME280;46498;49.968;7.754;2023-02-18T16:23:03;97540.00;;;8.32;100.00
28606;BME280;46498;49.968;7.754;2023-02-18T16:28:31;97555.00;;;8.35;100.00
28606;BME280;46498;49.968;7.754;2023-02-18T16:33:32;97558.00;;;8.22;100.00
28606;BME280;46498;49.968;7.754;2023-02-18T16:38:33;97552.00;;;8.25;100.00
28606;BME280;46498;49.968;7.754;2023-02-18T16:43:33;97556.00;;;8.21;100.00
28606;BME280;46498;49.968;7.754;2023-02-18T16:48:36;97551.00;;;8.16;100.00
28606;BME280;46498;49.968;7.754;2023-02-18T16:53:38;97543.00;;;8.09;100.00
28606;BME280;46498;49.968;7.754;2023-02-18T16:58:39;97549.00;;;8.05;100.00
28606;BME280;46498;49.968;7.754;2023-02-18T17:03:40;97554.00;;;8.03;100.00
28606;BME280;46498;49.968;7.754;2023-02-18T17:08:41;97554.00;;;7.95;100.00
28606;BME280;46498;49.968;7.754;2023-02-18T17:13:42;97560.00;;;7.92;100.00
28606;BME280;46498;49.968;7.754;2023-02-18T17:18:43;97572.00;;;7.96;100.00
28606;BME280;46498;49.968;7.754;2023-02-18T17:23:44;97567.00;;;7.87;100.00
28606;BME280;46498;49.968;7.754;2023-02-18T17:28:45;97560.00;;;7.86;100.00
28606;BME280;46498;49.968;7.754;2023-02-18T17:33:46;97567.00;;;7.87;100.00
28606;BME280;46498;49.968;7.754;2023-02-18T17:38:47;97576.00;;;7.78;100.00
28606;BME280;46498;49.968;7.754;2023-02-18T17:43:49;97577.00;;;7.82;100.00
28606;BME280;46498;49.968;7.754;2023-02-18T17:48:49;97569.00;;;7.86;100.00
28606;BME280;46498;49.968;7.754;2023-02-18T17:53:50;97576.00;;;7.84;100.00
28606;BME280;46498;49.968;7.754;2023-02-18T17:58:51;97582.00;;;7.89;100.00
28606;BME280;46498;49.968;7.754;2023-02-18T18:03:52;97578.00;;;7.81;100.00
28606;BME280;46498;49.968;7.754;2023-02-18T18:08:53;97585.00;;;7.81;100.00
28606;BME280;46498;49.968;7.754;2023-02-18T18:13:54;97598.00;;;7.72;100.00
28606;BME280;46498;49.968;7.754;2023-02-18T18:18:55;97583.00;;;7.73;100.00
28606;BME280;46498;49.968;7.754;2023-02-18T18:23:55;97587.00;;;7.68;100.00
28606;BME280;46498;49.968;7.754;2023-02-18T18:28:56;97599.00;;;7.69;100.00
28606;BME280;46498;49.968;7.754;2023-02-18T18:33:57;97603.00;;;7.75;100.00
28606;BME280;46498;49.968;7.754;2023-02-18T18:38:58;97601.00;;;7.72;100.00
28606;BME280;46498;49.968;7.754;2023-02-18T18:43:59;97599.00;;;7.78;100.00
28606;BME280;46498;49.968;7.754;2023-02-18T18:49:00;97591.00;;;7.68;100.00
28606;BME280;46498;49.968;7.754;2023-02-18T18:54:01;97591.00;;;7.67;100.00
28606;BME280;46498;49.968;7.754;2023-02-18T18:59:02;97584.00;;;7.66;100.00
28606;BME280;46498;49.968;7.754;2023-02-18T19:04:03;97580.00;;;7.65;100.00
28606;BME280;46498;49.968;7.754;2023-02-18T19:09:04;97587.00;;;7.66;100.00
28606;BME280;46498;49.968;7.754;2023-02-18T19:14:06;97583.00;;;7.71;100.00
28606;BME280;46498;49.968;7.754;2023-02-18T19:19:09;97589.00;;;7.71;100.00
28606;BME280;46498;49.968;7.754;2023-02-18T19:24:10;97592.00;;;7.66;100.00
28606;BME280;46498;49.968;7.754;2023-02-18T19:29:11;97591.00;;;7.71;100.00
28606;BME280;46498;49.968;7.754;2023-02-18T19:34:12;97600.00;;;7.77;100.00
28606;BME280;46498;49.968;7.754;2023-02-18T19:39:14;97590.00;;;7.77;100.00
28606;BME280;46498;49.968;7.754;2023-02-18T19:44:15;97593.00;;;7.75;100.00
28606;BME280;46498;49.968;7.754;2023-02-18T19:49:15;97581.00;;;7.85;100.00
28606;BME280;46498;49.968;7.754;2023-02-18T19:54:17;97584.00;;;7.83;100.00
28606;BME280;46498;49.968;7.754;2023-02-18T19:59:17;97581.00;;;7.85;100.00
28606;BME280;46498;49.968;7.754;2023-02-18T20:04:18;97588.00;;;7.88;100.00
28606;BME280;46498;49.968;7.754;2023-02-18T20:09:19;97581.00;;;7.85;100.00
28606;BME280;46498;49.968;7.754;2023-02-18T20:14:20;97579.00;;;7.85;100.00
28606;BME280;46498;49.968;7.754;2023-02-18T20:19:24;97576.00;;;7.87;100.00
28606;BME280;46498;49.968;7.754;2023-02-18T20:24:28;97573.00;;;7.95;100.00
28606;BME280;46498;49.968;7.754;2023-02-18T20:29:29;97566.00;;;7.91;100.00
28606;BME280;46498;49.968;7.754;2023-02-18T20:34:33;97566.00;;;8.00;100.00
28606;BME280;46498;49.968;7.754;2023-02-18T20:39:34;97564.00;;;8.00;100.00
28606;BME280;46498;49.968;7.754;2023-02-18T20:44:35;97564.00;;;7.97;100.00
28606;BME280;46498;49.968;7.754;2023-02-18T20:49:35;97559.00;;;7.97;100.00
28606;BME280;46498;49.968;7.754;2023-02-18T20:54:37;97547.00;;;7.91;100.00
28606;BME280;46498;49.968;7.754;2023-02-18T20:59:38;97547.00;;;7.91;100.00
28606;BME280;46498;49.968;7.754;2023-02-18T21:04:39;97541.00;;;7.84;100.00
28606;BME280;46498;49.968;7.754;2023-02-18T21:09:39;97537.00;;;7.78;100.00
28606;BME280;46498;49.968;7.754;2023-02-18T21:14:40;97538.00;;;7.87;100.00
28606;BME280;46498;49.968;7.754;2023-02-18T21:19:41;97541.00;;;7.79;100.00
28606;BME280;46498;49.968;7.754;2023-02-18T21:24:42;97545.00;;;7.83;100.00
28606;BME280;46498;49.968;7.754;2023-02-18T21:29:43;97534.00;;;7.83;100.00
28606;BME280;46498;49.968;7.754;2023-02-18T21:34:44;97544.00;;;7.79;100.00
28606;BME280;46498;49.968;7.754;2023-02-18T21:39:45;97531.00;;;7.81;100.00
28606;BME280;46498;49.968;7.754;2023-02-18T21:44:46;97522.00;;;7.89;100.00
28606;BME280;46498;49.968;7.754;2023-02-18T21:49:47;97511.00;;;7.82;100.00
28606;BME280;46498;49.968;7.754;2023-02-18T21:54:50;97512.00;;;7.84;100.00
28606;BME280;46498;49.968;7.754;2023-02-18T21:59:51;97503.00;;;7.91;100.00
28606;BME280;46498;49.968;7.754;2023-02-18T22:04:52;97499.00;;;7.90;100.00
28606;BME280;46498;49.968;7.754;2023-02-18T22:09:53;97487.00;;;7.91;100.00
28606;BME280;46498;49.968;7.754;2023-02-18T22:14:54;97482.00;;;7.91;100.00
28606;BME280;46498;49.968;7.754;2023-02-18T22:19:55;97481.00;;;7.90;100.00
28606;BME280;46498;49.968;7.754;2023-02-18T22:24:56;97481.00;;;7.92;100.00
28606;BME280;46498;49.968;7.754;2023-02-18T22:29:57;97467.00;;;7.85;100.00
28606;BME280;46498;49.968;7.754;2023-02-18T22:34:57;97469.00;;;7.90;100.00
28606;BME280;46498;49.968;7.754;2023-02-18T22:39:58;97464.00;;;7.85;100.00
28606;BME280;46498;49.968;7.754;2023-02-18T22:44:59;97475.00;;;7.90;100.00
28606;BME280;46498;49.968;7.754;2023-02-18T22:50:02;97469.00;;;7.88;100.00
28606;BME280;46498;49.968;7.754;2023-02-18T22:55:04;97459.00;;;7.89;100.00
28606;BME280;46498;49.968;7.754;2023-02-18T23:00:07;97452.00;;;7.89;100.00
28606;BME280;46498;49.968;7.754;2023-02-18T23:05:10;97445.00;;;7.95;100.00
28606;BME280;46498;49.968;7.754;2023-02-18T23:10:10;97443.00;;;7.99;100.00
28606;BME280;46498;49.968;7.754;2023-02-18T23:15:11;97446.00;;;7.91;100.00
28606;BME280;46498;49.968;7.754;2023-02-18T23:20:14;97444.00;;;7.91;100.00
28606;BME280;46498;49.968;7.754;2023-02-18T23:26:18;97443.00;;;7.90;100.00
28606;BME280;46498;49.968;7.754;2023-02-18T23:31:22;97432.00;;;7.92;100.00
28606;BME280;46498;49.968;7.754;2023-02-18T23:36:28;97431.00;;;7.93;100.00
28606;BME280;46498;49.968;7.754;2023-02-18T23:41:30;97430.00;;;7.96;100.00
28606;BME280;46498;49.968;7.754;2023-02-18T23:46:31;97428.00;;;7.93;100.00
28606;BME280;46498;49.968;7.754;2023-02-18T23:51:32;97431.00;;;7.90;100.00
28606;BME280;46498;49.968;7.754;2023-02-18T23:56:33;97419.00;;;7.94;100.00
